Time;durP1;ratioP1;P1;durP2;ratioP2;P2;SDS_P1;SDS_P2;PMS_P1;PMS_P2;Temp;Humidity;BMP_temperature;BMP_pressure;BME280_temperature;BME280_humidity;BME280_pressure;Samples;Min_cycle;Max_cycle;Signal;HPM_P1;HPM_P2
2022/04/21 00:00:48;;;;;;;5.47;1.10;;;18.60;99.90;;;;;;5085648;28;21380;-84
2022/04/21 00:03:15;;;;;;;2.60;0.90;;;18.80;99.90;;;;;;5084076;28;20418;-84
2022/04/21 00:05:42;;;;;;;2.42;1.10;;;18.90;99.90;;;;;;5071258;28;20527;-84
2022/04/21 00:08:10;;;;;;;2.25;0.90;;;19.10;99.90;;;;;;5086547;28;20429;-83
2022/04/21 00:10:37;;;;;;;2.92;0.98;;;19.50;99.90;;;;;;5074339;28;20418;-83
2022/04/21 00:13:07;;;;;;;4.07;1.00;;;19.70;99.90;;;;;;5077668;28;20463;-85
2022/04/21 00:15:34;;;;;;;3.42;0.80;;;19.90;99.90;;;;;;5087037;28;20376;-83
2022/04/21 00:18:01;;;;;;;3.03;0.80;;;20.10;99.90;;;;;;5087591;28;20807;-84
2022/04/21 00:20:28;;;;;;;2.95;0.70;;;20.30;99.30;;;;;;5086109;28;20380;-84
2022/04/21 00:25:40;;;;;;;3.85;0.98;;;20.70;97.20;;;;;;5084438;28;20445;-86
2022/04/21 00:28:07;;;;;;;2.03;0.80;;;20.70;98.60;;;;;;5068065;28;20388;-85
2022/04/21 00:30:35;;;;;;;3.90;0.93;;;20.90;96.10;;;;;;5085759;28;20416;-84
2022/04/21 00:33:02;;;;;;;2.17;0.65;;;20.90;94.70;;;;;;5086114;28;20403;-84
2022/04/21 00:35:29;;;;;;;3.88;0.80;;;20.50;96.60;;;;;;5086336;28;20415;-84
2022/04/21 00:37:57;;;;;;;4.57;0.70;;;20.50;96.10;;;;;;5086550;28;20376;-84
2022/04/21 00:40:27;;;;;;;2.22;0.60;;;20.60;94.80;;;;;;5086591;28;20375;-84
2022/04/21 00:42:55;;;;;;;1.63;0.60;;;20.60;94.10;;;;;;5086415;28;20893;-83
2022/04/21 00:45:22;;;;;;;1.50;0.65;;;20.70;93.90;;;;;;5090292;28;20455;-84
2022/04/21 00:47:51;;;;;;;6.40;0.70;;;21.20;94.00;;;;;;5090136;28;20451;-84
2022/04/21 00:50:34;;;;;;;1.87;0.70;;;20.90;94.70;;;;;;5090186;28;20487;-84
2022/04/21 00:53:02;;;;;;;3.60;0.67;;;21.10;92.30;;;;;;5089992;28;20463;-84
2022/04/21 00:55:31;;;;;;;4.35;0.60;;;21.10;91.70;;;;;;5090425;28;20368;-85
2022/04/21 00:58:01;;;;;;;2.17;0.60;;;21.30;91.80;;;;;;5072807;28;20780;-84
2022/04/21 01:00:28;;;;;;;2.00;0.60;;;21.60;91.90;;;;;;5090264;28;20389;-84
2022/04/21 01:02:55;;;;;;;0.65;0.60;;;22.00;88.00;;;;;;5089771;28;20566;-84
2022/04/21 01:05:29;;;;;;;1.60;0.50;;;22.10;84.20;;;;;;5071708;28;20402;-85
2022/04/21 01:07:58;;;;;;;2.50;0.60;;;22.10;84.50;;;;;;5089703;28;20384;-84
2022/04/21 01:10:27;;;;;;;3.13;0.68;;;22.20;83.60;;;;;;5089560;28;20373;-84
2022/04/21 01:12:55;;;;;;;1.80;0.60;;;22.10;85.40;;;;;;5071401;28;20750;-84
2022/04/21 01:15:22;;;;;;;1.33;0.50;;;22.10;85.30;;;;;;5089911;28;20454;-84
2022/04/21 01:17:51;;;;;;;2.10;0.60;;;22.30;84.50;;;;;;5089511;28;20387;-85
2022/04/21 01:20:22;;;;;;;2.10;0.80;;;22.50;82.00;;;;;;5089674;28;20372;-84
2022/04/21 01:22:50;;;;;;;1.23;0.55;;;23.00;80.50;;;;;;5089717;28;20412;-84
2022/04/21 01:25:17;;;;;;;1.30;0.47;;;23.40;78.60;;;;;;5089850;28;20377;-85
2022/04/21 01:27:50;;;;;;;1.13;0.60;;;23.80;75.80;;;;;;5089479;28;20377;-85
2022/04/21 01:30:17;;;;;;;1.67;0.63;;;24.40;75.30;;;;;;5089551;28;20364;-85
2022/04/21 01:32:45;;;;;;;2.13;0.60;;;24.80;75.50;;;;;;5089547;28;20407;-84
2022/04/21 01:35:13;;;;;;;4.25;0.95;;;25.50;72.80;;;;;;5049082;28;20502;-85
2022/04/21 01:43:12;;;;;;;2.03;0.70;;;26.20;66.00;;;;;;5049104;28;20383;-84
2022/04/21 01:45:39;;;;;;;1.13;0.60;;;25.60;65.60;;;;;;5049073;28;20469;-84
2022/04/21 01:48:06;;;;;;;1.63;0.70;;;25.00;66.30;;;;;;5047536;28;20467;-85
2022/04/21 01:50:34;;;;;;;1.20;0.70;;;25.00;67.90;;;;;;5048575;28;20380;-85
2022/04/21 01:53:01;;;;;;;1.27;0.70;;;24.90;67.90;;;;;;5048684;28;20411;-85
2022/04/21 01:55:28;;;;;;;2.65;0.68;;;24.40;68.90;;;;;;5047924;28;20934;-84
2022/04/21 01:57:55;;;;;;;2.05;0.63;;;23.90;70.70;;;;;;5048690;28;20415;-85
2022/04/21 02:00:22;;;;;;;2.38;0.70;;;24.00;70.60;;;;;;5048783;28;20386;-85
2022/04/21 02:02:50;;;;;;;2.55;0.70;;;24.50;71.30;;;;;;5048527;28;20391;-84
2022/04/21 02:05:17;;;;;;;2.83;0.80;;;24.90;69.30;;;;;;5048796;28;20372;-84
2022/04/21 02:07:45;;;;;;;2.30;0.73;;;25.90;68.10;;;;;;5048533;28;20856;-84
2022/04/21 02:10:14;;;;;;;1.97;0.70;;;26.80;64.60;;;;;;5048422;28;20372;-84
2022/04/21 02:12:41;;;;;;;2.17;0.80;;;27.20;62.90;;;;;;5048279;28;20474;-84
2022/04/21 02:15:09;;;;;;;4.57;0.85;;;26.50;63.30;;;;;;5048478;28;20384;-84
2022/04/21 02:17:37;;;;;;;2.90;0.90;;;25.90;66.50;;;;;;5048096;28;20380;-85
2022/04/21 02:20:09;;;;;;;3.60;0.90;;;25.60;68.20;;;;;;5048211;28;20372;-84
2022/04/21 02:22:36;;;;;;;2.93;1.00;;;26.00;68.30;;;;;;5048152;28;20430;-84
2022/04/21 02:25:11;;;;;;;2.85;1.13;;;27.10;66.70;;;;;;5048233;28;20368;-84
2022/04/21 02:27:40;;;;;;;2.50;1.10;;;26.90;67.20;;;;;;5048022;28;20859;-84
2022/04/21 02:30:08;;;;;;;2.42;1.10;;;27.30;64.30;;;;;;5047856;28;20372;-83
2022/04/21 02:32:36;;;;;;;1.87;1.10;;;28.00;62.50;;;;;;5047848;28;20404;-84
2022/04/21 02:35:06;;;;;;;2.25;0.98;;;28.20;63.50;;;;;;5086100;28;20423;-84
2022/04/21 02:37:37;;;;;;;3.83;1.13;;;28.50;60.90;;;;;;5069985;28;20391;-84
2022/04/21 02:40:05;;;;;;;2.78;1.00;;;28.40;62.00;;;;;;5087930;28;20434;-84
2022/04/21 02:42:33;;;;;;;4.68;1.30;;;28.40;63.30;;;;;;5087718;28;20914;-83
2022/04/21 02:45:05;;;;;;;4.10;1.20;;;28.70;63.40;;;;;;5087973;28;20401;-84
2022/04/21 02:47:32;;;;;;;5.53;1.40;;;28.60;63.90;;;;;;5087969;28;20389;-84
2022/04/21 02:49:59;;;;;;;5.07;1.52;;;27.50;65.80;;;;;;5087780;28;20372;-84
2022/04/21 02:52:26;;;;;;;7.60;1.40;;;26.00;69.80;;;;;;5087473;28;20411;-83
2022/04/21 02:57:38;;;;;;;5.40;1.30;;;26.60;71.50;;;;;;5087711;28;20403;-84
2022/04/21 03:00:07;;;;;;;6.03;1.50;;;27.30;70.30;;;;;;5069182;28;20381;-83
2022/04/21 03:02:34;;;;;;;5.60;1.55;;;27.70;69.20;;;;;;5087518;28;20368;-83
2022/04/21 03:05:01;;;;;;;6.20;1.50;;;28.10;68.20;;;;;;5087471;28;20369;-84
2022/04/21 03:07:28;;;;;;;3.30;1.35;;;28.20;66.70;;;;;;5087280;28;20373;-83
2022/04/21 03:09:55;;;;;;;5.93;1.25;;;27.90;66.50;;;;;;5087428;28;20376;-83
2022/04/21 03:12:24;;;;;;;4.20;1.48;;;27.90;67.00;;;;;;5087155;28;20435;-83
2022/04/21 03:14:51;;;;;;;5.45;1.40;;;27.90;67.20;;;;;;5080003;28;20414;-84
2022/04/21 03:17:18;;;;;;;4.47;1.30;;;28.00;66.10;;;;;;5069148;28;20381;-84
2022/04/21 03:19:45;;;;;;;4.50;1.38;;;28.40;65.20;;;;;;5068985;28;20419;-83
2022/04/21 03:25:02;;;;;;;5.23;1.60;;;27.50;68.00;;;;;;5087532;28;20902;-84
2022/04/21 03:27:29;;;;;;;5.63;1.50;;;27.70;68.00;;;;;;5086972;28;20459;-84
2022/04/21 03:29:57;;;;;;;3.92;1.30;;;27.90;68.60;;;;;;5087108;28;20400;-84
2022/04/21 03:32:25;;;;;;;4.57;1.50;;;28.00;72.30;;;;;;5086976;28;20491;-85
2022/04/21 03:34:53;;;;;;;6.15;1.50;;;27.30;77.20;;;;;;5086904;28;20389;-85
2022/04/21 03:37:20;;;;;;;5.82;1.75;;;25.80;80.60;;;;;;5086932;28;20372;-85
2022/04/21 03:39:47;;;;;;;6.43;1.75;;;25.80;90.10;;;;;;5086922;28;20373;-85
2022/04/21 03:42:26;;;;;;;6.00;1.75;;;25.20;95.30;;;;;;5086866;28;20393;-84
2022/04/21 03:44:54;;;;;;;5.45;1.80;;;24.20;96.50;;;;;;5086729;28;20403;-84
2022/04/21 03:47:21;;;;;;;5.43;1.65;;;23.10;99.90;;;;;;5068643;28;20901;-84
2022/04/21 03:49:48;;;;;;;4.10;1.60;;;22.10;99.90;;;;;;5086791;28;20404;-83
2022/04/21 03:52:17;;;;;;;4.70;1.80;;;21.40;99.90;;;;;;5086730;28;20412;-84
2022/04/21 03:54:44;;;;;;;5.72;2.00;;;20.80;99.90;;;;;;5086741;28;20429;-84
2022/04/21 03:57:11;;;;;;;6.20;2.05;;;20.50;99.90;;;;;;5086984;28;20372;-85
2022/04/21 03:59:38;;;;;;;6.35;1.95;;;20.40;99.90;;;;;;5087061;28;20376;-85
2022/04/21 04:02:05;;;;;;;5.82;2.00;;;20.30;99.90;;;;;;5069931;28;20380;-84
2022/04/21 04:04:37;;;;;;;8.95;2.35;;;20.30;99.90;;;;;;5089421;28;20775;-84
2022/04/21 04:12:37;;;;;;;6.30;1.85;;;20.20;99.90;;;;;;5086457;28;20453;-84
2022/04/21 04:15:05;;;;;;;7.07;2.00;;;20.30;99.90;;;;;;5086537;28;20375;-85
2022/04/21 04:17:33;;;;;;;7.45;1.90;;;20.40;99.90;;;;;;5086371;28;20374;-85
2022/04/21 04:20:00;;;;;;;8.17;1.87;;;20.50;99.90;;;;;;5090460;28;20377;-85
2022/04/21 04:22:27;;;;;;;9.20;1.88;;;20.50;99.90;;;;;;5090567;28;20381;-85
2022/04/21 04:24:56;;;;;;;7.75;1.70;;;20.40;99.90;;;;;;5090720;28;20453;-85
2022/04/21 04:27:23;;;;;;;7.87;1.90;;;20.30;99.90;;;;;;5090503;28;20383;-85
2022/04/21 04:29:50;;;;;;;6.30;1.70;;;20.10;99.90;;;;;;5090633;28;20368;-85
2022/04/21 04:32:17;;;;;;;5.95;1.73;;;20.00;99.90;;;;;;5090161;28;20384;-85
2022/04/21 04:34:44;;;;;;;7.65;1.77;;;20.00;99.90;;;;;;5090290;28;20403;-88
2022/04/21 04:37:11;;;;;;;7.22;1.80;;;19.90;99.90;;;;;;5090089;28;20389;-84
2022/04/21 04:39:39;;;;;;;7.45;1.85;;;20.00;99.90;;;;;;5090279;28;20389;-84
2022/04/21 04:42:18;;;;;;;8.20;1.88;;;19.90;99.90;;;;;;5089924;28;20372;-85
2022/04/21 04:44:49;;;;;;;10.27;2.35;;;20.00;99.90;;;;;;5089975;28;20421;-84
2022/04/21 04:47:16;;;;;;;7.77;2.07;;;19.90;99.90;;;;;;5090118;28;21044;-85
2022/04/21 04:49:43;;;;;;;6.07;1.83;;;19.90;99.90;;;;;;5090081;28;20402;-84
2022/04/21 04:52:10;;;;;;;5.18;1.80;;;19.80;99.90;;;;;;5089806;28;20927;-84
2022/04/21 04:54:37;;;;;;;9.48;1.90;;;19.70;99.90;;;;;;5090159;28;20428;-85
2022/04/21 04:57:04;;;;;;;5.88;1.73;;;19.70;99.90;;;;;;5090012;28;20376;-84
2022/04/21 04:59:31;;;;;;;9.45;2.20;;;19.50;99.90;;;;;;5089844;28;20863;-84
2022/04/21 05:01:58;;;;;;;6.50;1.88;;;19.50;99.90;;;;;;5089861;28;20421;-86
2022/04/21 05:04:25;;;;;;;6.47;1.80;;;19.40;99.90;;;;;;5089827;28;20377;-83
2022/04/21 05:06:55;;;;;;;6.45;1.77;;;19.30;99.90;;;;;;5089801;28;20526;-84
2022/04/21 05:09:24;;;;;;;8.63;1.83;;;19.20;99.90;;;;;;5089674;28;20372;-84
2022/04/21 05:11:53;;;;;;;6.20;1.80;;;19.30;99.90;;;;;;5089275;28;20483;-85
2022/04/21 05:14:22;;;;;;;10.60;1.80;;;19.20;99.90;;;;;;5071454;28;20518;-85
2022/04/21 05:16:49;;;;;;;8.95;2.15;;;19.20;99.90;;;;;;5089454;28;20371;-84
2022/04/21 05:19:19;;;;;;;4.93;1.50;;;19.20;99.90;;;;;;5089841;28;20484;-85
2022/04/21 05:21:47;;;;;;;5.53;1.80;;;19.20;99.90;;;;;;5089456;28;20391;-84
2022/04/21 05:24:15;;;;;;;7.15;1.70;;;19.30;99.90;;;;;;5089401;28;20430;-85
2022/04/21 05:26:43;;;;;;;5.57;1.80;;;19.40;99.90;;;;;;5088990;28;20384;-85
2022/04/21 05:32:01;;;;;;;7.07;1.90;;;19.60;99.90;;;;;;5080846;28;20437;-84
2022/04/21 05:34:29;;;;;;;7.22;1.75;;;19.80;99.90;;;;;;5070183;28;20414;-86
2022/04/21 05:37:00;;;;;;;5.55;1.70;;;19.80;99.90;;;;;;5080543;28;20382;-92
2022/04/21 05:39:29;;;;;;;12.38;1.95;;;19.70;99.90;;;;;;5051079;28;20439;-88
2022/04/21 05:41:58;;;;;;;6.72;1.80;;;19.60;99.90;;;;;;5069508;28;20475;-85
2022/04/21 05:44:29;;;;;;;5.28;1.50;;;19.60;99.90;;;;;;5069324;28;20527;-90
2022/04/21 05:47:00;;;;;;;5.40;1.90;;;19.50;99.90;;;;;;5069040;28;20948;-85
2022/04/21 05:49:27;;;;;;;7.85;1.80;;;19.50;99.90;;;;;;5086933;28;20407;-87
2022/04/21 05:51:59;;;;;;;6.95;1.77;;;19.40;99.90;;;;;;5068938;28;20408;-86
2022/04/21 05:54:26;;;;;;;6.57;1.80;;;19.30;99.90;;;;;;5072677;28;20376;-86
2022/04/21 05:56:53;;;;;;;6.43;1.60;;;19.30;99.90;;;;;;5068763;28;20855;-87
2022/04/21 05:59:20;;;;;;;6.65;1.73;;;19.30;99.90;;;;;;5073684;28;20382;-86
2022/04/21 06:01:47;;;;;;;8.02;1.67;;;19.30;99.90;;;;;;5068774;28;20401;-86
2022/04/21 06:04:14;;;;;;;6.03;1.52;;;19.40;99.90;;;;;;5068632;28;20381;-86
2022/04/21 06:06:41;;;;;;;9.57;1.73;;;19.40;99.90;;;;;;5068487;28;20783;-88
2022/04/21 06:09:08;;;;;;;5.45;1.60;;;19.40;99.90;;;;;;5076892;28;20393;-85
2022/04/21 06:11:35;;;;;;;5.40;1.75;;;19.40;99.90;;;;;;5083066;28;20453;-85
2022/04/21 06:14:02;;;;;;;5.82;1.80;;;19.50;99.90;;;;;;5089141;28;20380;-86
2022/04/21 06:16:29;;;;;;;6.15;1.67;;;19.60;99.90;;;;;;5089425;28;20770;-86
2022/04/21 06:18:56;;;;;;;6.38;1.60;;;19.50;99.90;;;;;;5087532;28;20778;-84
2022/04/21 06:21:23;;;;;;;6.63;1.80;;;19.50;99.90;;;;;;5091006;28;20459;-86
2022/04/21 06:23:50;;;;;;;6.67;1.73;;;19.50;99.90;;;;;;5089433;28;20397;-86
2022/04/21 06:26:17;;;;;;;6.40;1.75;;;19.50;99.90;;;;;;5087070;28;20390;-86
2022/04/21 06:28:44;;;;;;;7.65;2.30;;;19.40;99.90;;;;;;5079906;28;20399;-83
2022/04/21 06:31:12;;;;;;;7.95;1.90;;;19.40;99.90;;;;;;5068013;28;20449;-87
2022/04/21 06:33:39;;;;;;;6.40;1.70;;;19.20;99.90;;;;;;5067368;28;20881;-85
2022/04/21 06:36:07;;;;;;;7.18;1.73;;;19.20;99.90;;;;;;5068088;28;20366;-86
2022/04/21 06:38:34;;;;;;;5.05;1.75;;;19.20;99.90;;;;;;5068130;28;20381;-81
2022/04/21 06:41:02;;;;;;;6.88;1.80;;;19.10;99.90;;;;;;5067941;28;20366;-85
2022/04/21 06:48:59;;;;;;;7.20;1.77;;;19.10;99.90;;;;;;5068093;28;20373;-82
2022/04/21 06:51:27;;;;;;;5.00;1.48;;;19.10;99.90;;;;;;5067697;28;20858;-90
2022/04/21 06:53:55;;;;;;;6.25;2.00;;;19.00;99.90;;;;;;5068020;28;20378;-83
2022/04/21 06:56:22;;;;;;;6.20;1.73;;;19.10;99.90;;;;;;5068318;28;20371;-81
2022/04/21 06:58:49;;;;;;;7.03;1.67;;;19.10;99.90;;;;;;5068183;28;20374;-90
2022/04/21 07:01:16;;;;;;;7.80;1.60;;;19.00;99.90;;;;;;5068393;28;20850;-83
2022/04/21 07:03:43;;;;;;;6.95;1.55;;;19.00;99.90;;;;;;5067714;28;20430;-85
2022/04/21 07:06:11;;;;;;;7.65;1.75;;;19.00;99.90;;;;;;5068047;28;20402;-79
2022/04/21 07:08:38;;;;;;;7.57;1.88;;;19.00;99.90;;;;;;5070014;28;20907;-89
2022/04/21 07:11:05;;;;;;;5.93;1.60;;;18.90;99.90;;;;;;5070969;28;20379;-82
2022/04/21 07:13:33;;;;;;;6.63;1.75;;;18.90;99.90;;;;;;5078061;28;20442;-85
2022/04/21 07:16:00;;;;;;;5.40;1.38;;;18.90;99.90;;;;;;5072984;28;21146;-85
2022/04/21 07:18:27;;;;;;;4.82;1.50;;;18.90;99.90;;;;;;5068435;28;20371;-88
2022/04/21 07:20:54;;;;;;;7.32;1.40;;;18.90;99.90;;;;;;5069458;28;20378;-87
2022/04/21 07:23:21;;;;;;;6.40;1.55;;;18.90;99.90;;;;;;5079489;28;20362;-89
2022/04/21 07:25:49;;;;;;;5.10;1.47;;;18.90;99.90;;;;;;5079685;28;20370;-88
2022/04/21 07:28:16;;;;;;;7.05;1.70;;;18.90;99.90;;;;;;5072409;28;20729;-82
2022/04/21 07:30:43;;;;;;;8.52;1.58;;;18.90;99.90;;;;;;5066767;28;20439;-88
2022/04/21 07:33:09;;;;;;;5.10;1.40;;;18.90;99.90;;;;;;5066996;28;20409;-87
2022/04/21 07:35:36;;;;;;;5.00;1.38;;;18.90;99.90;;;;;;5067490;28;20408;-89
2022/04/21 07:38:07;;;;;;;6.82;1.65;;;18.90;99.90;;;;;;5067778;28;20754;-88
2022/04/21 07:40:35;;;;;;;21.50;2.50;;;18.90;99.90;;;;;;5071982;28;20385;-90
2022/04/21 07:43:08;;;;;;;7.60;1.80;;;18.90;99.90;;;;;;5053469;28;20396;-88
2022/04/21 07:45:38;;;;;;;8.40;1.65;;;19.00;99.90;;;;;;5078620;28;20469;-89
2022/04/21 07:48:06;;;;;;;6.30;1.52;;;19.10;99.90;;;;;;5067836;28;20378;-86
2022/04/21 07:50:33;;;;;;;4.05;1.50;;;19.10;99.90;;;;;;5069563;28;20374;-94
2022/04/21 07:53:13;;;;;;;6.57;1.50;;;19.20;99.90;;;;;;5069671;28;20451;-89
2022/04/21 07:55:41;;;;;;;7.33;1.40;;;19.20;99.90;;;;;;5088567;28;20740;-90
2022/04/21 07:58:09;;;;;;;6.30;1.40;;;19.20;99.90;;;;;;5087448;28;20376;-87
2022/04/21 08:00:38;;;;;;;7.35;1.40;;;19.30;99.90;;;;;;5086923;28;20395;-89
2022/04/21 08:03:09;;;;;;;4.78;1.23;;;19.30;99.90;;;;;;5073340;28;20383;-88
2022/04/21 08:05:36;;;;;;;6.72;1.20;;;19.30;99.90;;;;;;5071282;28;20870;-94
2022/04/21 08:08:04;;;;;;;5.85;1.30;;;19.20;99.90;;;;;;5077107;28;20397;-90
2022/04/21 08:10:35;;;;;;;3.90;1.40;;;19.20;99.90;;;;;;5069970;28;20375;-94
2022/04/21 08:13:02;;;;;;;5.95;1.30;;;19.20;99.90;;;;;;5091289;28;20963;-89
2022/04/21 08:15:31;;;;;;;8.95;1.63;;;19.20;99.90;;;;;;5088071;28;20421;-88
2022/04/21 08:18:09;;;;;;;9.30;1.67;;;19.10;99.90;;;;;;5076951;28;20378;-89
2022/04/21 08:20:43;;;;;;;9.10;1.60;;;19.10;99.90;;;;;;5082251;28;20366;-92
2022/04/21 08:23:12;;;;;;;8.32;1.67;;;19.00;99.90;;;;;;5089200;28;20388;-96
2022/04/21 08:33:56;;;;;;;11.15;1.90;;;18.60;99.90;;;;;;5094569;28;20472;-87
2022/04/21 08:36:23;;;;;;;15.85;2.60;;;18.50;99.90;;;;;;5060781;28;20378;-88
2022/04/21 08:38:57;;;;;;;10.07;1.85;;;18.50;99.90;;;;;;5083382;28;20394;-86
2022/04/21 08:41:28;;;;;;;9.50;1.70;;;18.40;99.90;;;;;;5079077;28;20369;-94
2022/04/21 08:43:59;;;;;;;11.18;1.90;;;18.30;99.90;;;;;;5058107;28;20375;-95
2022/04/21 08:46:28;;;;;;;11.27;1.90;;;18.30;99.90;;;;;;5069255;28;20877;-91
2022/04/21 08:48:55;;;;;;;10.85;1.83;;;18.30;99.90;;;;;;5072917;28;20417;-89
2022/04/21 08:51:25;;;;;;;17.02;2.30;;;18.20;99.90;;;;;;5071534;28;20841;-93
2022/04/21 08:53:55;;;;;;;12.07;1.73;;;18.20;99.90;;;;;;5076018;28;20502;-84
2022/04/21 08:56:22;;;;;;;9.82;1.52;;;18.10;99.90;;;;;;5093773;28;20871;-88
2022/04/21 08:58:49;;;;;;;10.95;1.70;;;18.10;99.90;;;;;;5071121;28;20476;-89
2022/04/21 09:01:27;;;;;;;6.67;1.50;;;18.10;99.90;;;;;;5096475;28;20395;-88
2022/04/21 09:03:57;;;;;;;5.80;1.50;;;18.00;99.90;;;;;;5027415;28;20423;-89
2022/04/21 09:06:24;;;;;;;15.10;1.63;;;18.10;99.90;;;;;;5094594;28;20377;-84
2022/04/21 09:09:20;;;;;;;9.43;1.50;;;18.10;99.90;;;;;;5091764;28;20909;-92
2022/04/21 09:11:50;;;;;;;6.75;1.40;;;18.00;99.90;;;;;;5033051;28;20461;-85
2022/04/21 09:14:20;;;;;;;8.43;1.50;;;18.00;99.90;;;;;;5034051;28;20386;-92
2022/04/21 09:16:48;;;;;;;5.68;1.40;;;18.00;99.90;;;;;;5027462;28;20394;-88
2022/04/21 09:19:15;;;;;;;8.27;1.80;;;17.90;99.90;;;;;;5018262;28;20394;-95
2022/04/21 09:21:42;;;;;;;7.47;2.10;;;17.90;99.90;;;;;;5014538;28;20392;-88
2022/04/21 09:24:22;;;;;;;6.13;1.85;;;17.90;99.90;;;;;;5029262;28;20404;-92
2022/04/21 09:26:49;;;;;;;8.73;1.70;;;17.90;99.90;;;;;;5028552;28;20893;-86
2022/04/21 09:29:33;;;;;;;7.03;1.73;;;17.90;99.90;;;;;;5013899;28;20395;-87
2022/04/21 09:32:04;;;;;;;7.03;2.10;;;17.90;99.90;;;;;;5029718;28;20427;-89
2022/04/21 09:34:31;;;;;;;8.80;2.00;;;18.00;99.90;;;;;;5025463;28;20413;-88
2022/04/21 09:36:59;;;;;;;9.32;1.60;;;18.10;99.90;;;;;;5006704;28;20392;-92
2022/04/21 09:39:29;;;;;;;7.57;1.70;;;18.00;99.90;;;;;;4994840;28;20449;-87
2022/04/21 09:41:56;;;;;;;6.80;1.70;;;17.90;99.90;;;;;;5028195;28;20393;-84
2022/04/21 09:47:20;;;;;;;6.88;1.42;;;17.80;99.90;;;;;;5015803;28;20436;-85
2022/04/21 09:49:47;;;;;;;7.18;1.60;;;17.80;99.90;;;;;;5066509;28;20370;-85
2022/04/21 09:52:27;;;;;;;7.53;1.77;;;17.80;99.90;;;;;;5080936;28;20479;-85
2022/04/21 09:54:54;;;;;;;9.98;1.90;;;17.70;99.90;;;;;;5065389;28;20386;-85
2022/04/21 09:57:34;;;;;;;10.23;1.80;;;17.70;99.90;;;;;;5069089;28;20382;-86
2022/04/21 10:00:02;;;;;;;7.13;1.77;;;17.70;99.90;;;;;;5069175;28;20869;-84
2022/04/21 10:02:33;;;;;;;8.27;2.00;;;17.60;99.90;;;;;;5068639;28;20515;-88
2022/04/21 10:05:00;;;;;;;8.23;1.80;;;17.60;99.90;;;;;;5069905;28;20367;-84
2022/04/21 10:07:28;;;;;;;7.93;1.80;;;17.60;99.90;;;;;;5069134;28;20374;-84
2022/04/21 10:09:55;;;;;;;7.00;1.80;;;17.50;99.90;;;;;;5071263;28;20850;-84
2022/04/21 10:12:22;;;;;;;8.37;1.90;;;17.50;99.90;;;;;;5070909;28;20416;-87
2022/04/21 10:14:51;;;;;;;8.60;1.90;;;17.50;99.90;;;;;;5089372;28;20360;-84
2022/04/21 10:17:19;;;;;;;7.53;2.67;;;17.50;99.90;;;;;;5089425;28;20907;-86
2022/04/21 10:19:53;;;;;;;12.40;3.30;;;17.40;99.90;;;;;;5091248;28;20395;-86
2022/04/21 10:22:21;;;;;;;10.93;3.30;;;17.40;99.90;;;;;;5090474;28;20377;-84
2022/04/21 10:24:48;;;;;;;11.07;3.70;;;17.40;99.90;;;;;;5117051;28;20385;-84
2022/04/21 10:27:53;;;;;;;9.20;3.60;;;17.40;99.90;;;;;;5109687;28;20378;-87
2022/04/21 10:30:29;;;;;;;9.05;3.75;;;17.40;99.90;;;;;;4997456;28;20476;-86
2022/04/21 10:33:07;;;;;;;11.60;3.60;;;17.40;99.90;;;;;;4989496;28;20775;-87
2022/04/21 10:35:34;;;;;;;10.57;3.13;;;17.40;99.90;;;;;;5018763;28;20464;-87
2022/04/21 10:38:13;;;;;;;9.77;2.90;;;17.40;99.90;;;;;;5015128;28;20424;-89
2022/04/21 10:41:06;;;;;;;10.20;3.20;;;17.40;99.90;;;;;;5009400;28;20896;-86
2022/04/21 10:43:51;;;;;;;12.32;3.45;;;17.40;99.90;;;;;;4994026;28;20399;-89
2022/04/21 10:46:25;;;;;;;9.02;3.20;;;17.40;99.90;;;;;;5007259;28;20383;-91
2022/04/21 10:48:52;;;;;;;10.38;3.30;;;17.40;99.90;;;;;;4979416;28;20393;-86
2022/04/21 10:57:17;;;;;;;11.45;2.38;;;17.40;99.90;;;;;;5005979;28;20439;-88
2022/04/21 11:00:11;;;;;;;7.35;1.90;;;17.40;99.90;;;;;;5010065;28;20745;-89
2022/04/21 11:02:43;;;;;;;7.05;2.47;;;17.50;99.90;;;;;;4978255;28;20790;-86
2022/04/21 11:05:33;;;;;;;10.77;2.75;;;17.40;99.90;;;;;;4994334;28;20414;-84
2022/04/21 11:08:02;;;;;;;7.20;2.08;;;17.50;99.90;;;;;;4994141;28;20790;-89
2022/04/21 11:10:38;;;;;;;8.75;1.90;;;17.40;99.90;;;;;;4985859;28;20385;-89
2022/04/21 11:13:07;;;;;;;9.73;1.80;;;17.40;99.90;;;;;;4995283;28;20776;-92
2022/04/21 11:15:37;;;;;;;14.52;2.30;;;17.40;99.90;;;;;;4996047;28;20472;-89
2022/04/21 11:18:38;;;;;;;12.07;2.10;;;17.40;99.90;;;;;;4992414;28;20474;-87
2022/04/21 11:21:26;;;;;;;11.50;1.92;;;17.50;99.90;;;;;;4995645;28;20393;-90
2022/04/21 11:23:53;;;;;;;11.57;1.92;;;17.50;99.90;;;;;;4997969;28;20396;-91
2022/04/21 11:26:30;;;;;;;7.38;2.00;;;17.60;99.90;;;;;;4983615;28;20395;-89
2022/04/21 11:29:04;;;;;;;11.60;2.00;;;17.60;99.90;;;;;;4997363;28;20415;-93
2022/04/21 11:31:31;;;;;;;16.27;2.70;;;17.60;99.90;;;;;;4992001;28;20433;-87
2022/04/21 11:34:03;;;;;;;18.30;2.40;;;17.60;99.90;;;;;;4998293;28;20516;-85
2022/04/21 11:36:40;;;;;;;18.60;2.83;;;17.60;99.90;;;;;;5005191;28;20396;-84
2022/04/21 11:39:08;;;;;;;23.70;3.13;;;17.60;99.90;;;;;;5011326;28;20493;-87
2022/04/21 11:41:41;;;;;;;19.27;3.10;;;17.60;99.90;;;;;;5085789;28;20888;-90
2022/04/21 11:44:09;;;;;;;20.50;2.87;;;17.60;99.90;;;;;;5078086;28;20447;-93
2022/04/21 11:46:41;;;;;;;16.42;2.92;;;17.60;99.90;;;;;;5081701;28;20692;-95
2022/04/21 11:49:09;;;;;;;14.50;2.50;;;17.60;99.90;;;;;;5076171;28;20397;-85
2022/04/21 11:51:36;;;;;;;12.18;2.20;;;17.60;99.90;;;;;;5076557;28;20372;-88
2022/04/21 11:54:08;;;;;;;10.55;2.35;;;17.60;99.90;;;;;;5079726;28;20396;-89
2022/04/21 11:56:37;;;;;;;9.30;2.30;;;17.60;99.90;;;;;;5081377;28;20756;-84
2022/04/21 11:59:08;;;;;;;13.32;2.42;;;17.60;99.90;;;;;;5073429;28;20397;-85
2022/04/21 12:07:15;;;;;;;15.05;2.50;;;17.40;99.90;;;;;;5082083;28;20379;-85
2022/04/21 12:09:43;;;;;;;21.02;2.67;;;17.40;99.90;;;;;;5091899;28;20403;-89
2022/04/21 12:12:13;;;;;;;28.73;3.67;;;17.40;99.90;;;;;;5078289;28;20502;-90
2022/04/21 12:14:50;;;;;;;28.15;3.88;;;17.40;99.90;;;;;;5070564;28;20392;-90
2022/04/21 12:17:20;;;;;;;27.77;3.83;;;17.40;99.90;;;;;;5061120;28;20373;-94
2022/04/21 12:19:47;;;;;;;11.57;2.40;;;17.40;99.90;;;;;;5067760;28;20729;-91
2022/04/21 12:22:34;;;;;;;10.43;2.60;;;17.40;99.90;;;;;;5078901;28;20862;-85
2022/04/21 12:25:02;;;;;;;6.10;1.93;;;17.30;99.90;;;;;;5076675;28;20404;-91
2022/04/21 12:27:35;;;;;;;9.27;2.00;;;17.20;99.90;;;;;;5077311;28;20376;-91
2022/04/21 12:30:08;;;;;;;8.07;1.80;;;17.20;99.90;;;;;;5076880;28;20408;-91
2022/04/21 12:32:39;;;;;;;7.85;2.00;;;17.20;99.90;;;;;;5079348;28;20779;-88
2022/04/21 12:42:04;;;;;;;12.05;2.30;;;17.10;99.90;;;;;;5078971;28;20912;-94
2022/04/21 12:44:32;;;;;;;19.00;2.72;;;17.10;99.90;;;;;;5082372;28;20380;-93
2022/04/21 12:47:05;;;;;;;11.73;2.20;;;17.10;99.90;;;;;;5084018;28;20378;-88
2022/04/21 12:49:55;;;;;;;11.57;2.40;;;17.10;99.90;;;;;;5060566;28;20776;-95
2022/04/21 12:52:32;;;;;;;11.95;2.03;;;17.10;99.90;;;;;;5087390;28;20471;-91
2022/04/21 12:55:01;;;;;;;11.50;2.58;;;17.10;99.90;;;;;;5081149;28;20392;-88
2022/04/21 12:57:28;;;;;;;11.73;2.20;;;17.10;99.90;;;;;;5082574;28;20368;-88
2022/04/21 12:59:56;;;;;;;8.50;2.23;;;17.00;99.90;;;;;;5082997;28;20404;-89
2022/04/21 13:02:23;;;;;;;9.50;2.10;;;17.00;99.90;;;;;;5078860;28;20425;-86
2022/04/21 13:04:51;;;;;;;8.30;1.90;;;17.00;99.90;;;;;;5085729;28;20455;-86
2022/04/21 13:07:18;;;;;;;7.93;2.10;;;16.90;99.90;;;;;;5077232;28;20380;-91
2022/04/21 13:09:45;;;;;;;9.35;2.40;;;16.80;99.90;;;;;;5084307;28;20886;-96
2022/04/21 13:12:12;;;;;;;10.17;2.20;;;16.90;99.90;;;;;;5088581;28;20479;-95
2022/04/21 13:14:39;;;;;;;7.53;2.00;;;16.70;99.90;;;;;;5089016;28;20474;-89
2022/04/21 13:17:06;;;;;;;9.85;2.13;;;16.70;99.90;;;;;;5070122;28;20390;-92
2022/04/21 13:19:33;;;;;;;9.73;2.20;;;16.60;99.90;;;;;;5090127;28;20386;-88
2022/04/21 13:22:03;;;;;;;11.10;2.60;;;16.70;99.90;;;;;;5081417;28;20389;-86
2022/04/21 13:24:32;;;;;;;8.30;2.25;;;16.60;99.90;;;;;;5084896;28;20388;-92
2022/04/21 13:27:02;;;;;;;6.72;2.22;;;16.70;99.90;;;;;;5068781;28;20516;-94
2022/04/21 13:29:29;;;;;;;11.32;2.65;;;16.70;99.90;;;;;;5088347;28;20905;-87
2022/04/21 13:34:42;;;;;;;10.60;2.40;;;16.60;99.90;;;;;;5090355;28;20955;-86
2022/04/21 13:37:09;;;;;;;10.05;2.50;;;16.60;99.90;;;;;;5083059;28;20407;-89
2022/04/21 13:39:38;;;;;;;11.90;2.45;;;16.60;99.90;;;;;;5071092;28;20429;-91
2022/04/21 13:42:06;;;;;;;9.73;2.40;;;16.60;99.90;;;;;;5071906;28;20386;-93
2022/04/21 13:44:33;;;;;;;9.07;2.45;;;16.70;99.90;;;;;;5071016;28;20401;-90
2022/04/21 13:47:00;;;;;;;10.45;2.60;;;16.80;99.90;;;;;;5090722;28;20407;-94
2022/04/21 13:49:27;;;;;;;11.00;2.60;;;16.60;99.90;;;;;;5092592;28;20376;-92
2022/04/21 13:51:53;;;;;;;10.85;2.40;;;16.60;99.90;;;;;;5095369;28;20438;-95
2022/04/21 14:01:05;;;;;;;12.02;2.97;;;16.30;99.90;;;;;;5096867;28;20372;-93
2022/04/21 14:03:37;;;;;;;13.77;3.20;;;16.20;99.90;;;;;;5100226;28;20372;-93